Nearby METAR Reports

 

KW29 - Stevensville, Maryland, USA
Distance from station: SSW 13mi, 21km
Updated: Tue, 18-Jun-2019 10:40am EDT
Partly cloudy
Partly cloudy
 Wind from WNW
Wind: WNW 3 mph , 6 km/h
Temperature: 77°F , 25°C
Dew Point: 73°F , 23°C
Humidity: 89%
Barometer: 29.93 inHg , 1013.5 hPa
Clouds: Partly cloudy
Visibility: 10 miles , 16 km
Cloud details: Partly cloudy 12000 ft
2019/06/18 14:40 KW29 181440Z AUTO 30003KT 10SM SCT120 25/23 A2993 RMK AO2
KMTN - Baltimore/Martin, Maryland, USA
Distance from station: NW 13mi, 22km
Updated: Tue, 18-Jun-2019 10:45am EDT
Mostly cloudy
Mostly cloudy
 Wind from SSE
Wind: SSE 5 mph , 7 km/h
Temperature: 79°F , 26°C
Dew Point: 75°F , 24°C
Humidity: 89%
Barometer: 29.94 inHg , 1013.9 hPa
Clouds: Mostly cloudy
Visibility: 10 miles , 16 km
Cloud details: Partly cloudy 700 ft
Mostly cloudy 1000 ft
Mostly cloudy 11000 ft
2019/06/18 14:45 KMTN 181445Z 15004KT 10SM SCT007 BKN010 BKN110 26/24 A2994
 
KNAK - Annapolis/Naval, Maryland, USA
Distance from station: SW 18mi, 28km
Updated: Tue, 18-Jun-2019 10:54am EDT
Clear
Clear
 Wind from calm
Wind: Calm
Temperature: 82°F , 28°C
Heat Index: 86°F , 30°C
Dew Point: 72°F , 22°C
Humidity: 70%
Barometer: 29.93 inHg , 1013.5 hPa
Clouds: Clear
Visibility: 10 miles , 16 km
2019/06/18 14:54 KNAK 181454Z AUTO 00000KT 10SM CLR 28/22 A2993 RMK AO2 SLP136 T02780222 53000 $
KAPG - Aberdeen/Phillip, Maryland, USA
Distance from station: NNE 21mi, 34km
Updated: Tue, 18-Jun-2019 10:46am EDT
Overcast
Overcast
 Wind from S
Wind: S 3 mph , 6 km/h
Temperature: 77°F , 25°C
Dew Point: 72°F , 22°C
Humidity: 83%
Barometer: 29.93 inHg , 1013.5 hPa
Clouds: Overcast
Visibility: 10 miles , 16 km
Cloud details: Mostly cloudy 1200 ft
Overcast 4000 ft
2019/06/18 14:46 KAPG 181446Z 18003KT 10SM BKN012 OVC040 25/22 A2993
 
KDMH - Baltimore/Dwntwn, Maryland, USA
Distance from station: WNW 21mi, 34km
Updated: Tue, 18-Jun-2019 10:54am EDT

 
Temperature: 84°F , 29°C
Heat Index: 90°F , 32°C
Dew Point: 73°F , 23°C
Humidity: 70%
Barometer: 29.95 inHg , 1014.2 hPa
2019/06/18 14:54 KDMH 181454Z AUTO 29/23 A2995 RMK AO1 SLP142 T02890233 50004
KBWI - Balto/Wash Intl, Maryland, USA
Distance from station: W 23mi, 37km
Updated: Tue, 18-Jun-2019 10:54am EDT
Mostly cloudy
Mostly cloudy
 Wind from calm
Wind: Calm
Temperature: 81°F , 27°C
Heat Index: 85°F , 29°C
Dew Point: 72°F , 22°C
Humidity: 74%
Barometer: 29.92 inHg , 1013.2 hPa
Clouds: Mostly cloudy
Visibility: 10 miles , 16 km
Cloud details: Few Clouds 1500 ft
Partly cloudy 4800 ft
Mostly cloudy 11000 ft
Mostly cloudy 14000 ft
Mostly cloudy 20000 ft
2019/06/18 14:54 KBWI 181454Z 00000KT 10SM FEW015 SCT048 BKN110 BKN140 BKN200 27/22 A2992 RMK AO2 SLP129 T02720222 58004
 
KESN - Easton/Newnam, Maryland, USA
Distance from station: SSE 27mi, 44km
Updated: Tue, 18-Jun-2019 10:45am EDT
Mostly cloudy
Mostly cloudy
 Wind from SSW
Wind: SSW 5 mph , 7 km/h
Temperature: 79°F , 26°C
Dew Point: 72°F , 22°C
Humidity: 79%
Barometer: 29.97 inHg , 1014.9 hPa
Clouds: Mostly cloudy
Visibility: 10 miles , 16 km
Cloud details: Mostly cloudy 15000 ft
2019/06/18 14:45 KESN 181445Z 21004KT 10SM BKN150 26/22 A2997
KFME - Fort Meade, Maryland, USA
Distance from station: WSW 28mi, 45km
Updated: Tue, 18-Jun-2019 10:42am EDT

 Wind from calm
Wind: Calm
Temperature: 77°F , 25°C
Dew Point: 72°F , 22°C
Humidity: 83%
Barometer: 29.95 inHg , 1014.2 hPa
Visibility: 10 miles , 16 km
2019/06/18 14:42 KFME 181442Z AUTO 00000KT 10SM 25/22 A2995 RMK AO1
 
KCGS - College Park, Maryland, USA
Distance from station: WSW 38mi, 61km
Updated: Tue, 18-Jun-2019 10:43am EDT
Partly cloudy
Partly cloudy
 Wind from calm
Wind: Calm
Temperature: 79°F , 26°C
Dew Point: 70°F , 21°C
Humidity: 74%
Barometer: 29.92 inHg , 1013.2 hPa
Clouds: Partly cloudy
Visibility: 10 miles , 16 km
Cloud details: Partly cloudy 11000 ft
2019/06/18 14:43 KCGS 181443Z AUTO 00000KT 10SM SCT110 26/21 A2992 RMK AO1 T02550212
KADW - Andrews Afb, Maryland, USA
Distance from station: SW 41mi, 66km
Updated: Tue, 18-Jun-2019 10:56am EDT
Partly cloudy
Partly cloudy
 Wind from calm
Wind: Calm
Temperature: 79°F , 26°C
Dew Point: 72°F , 22°C
Humidity: 79%
Barometer: 29.94 inHg , 1013.9 hPa
Clouds: Partly cloudy
Visibility: 10 miles , 16 km
Cloud details: Partly cloudy 1400 ft
Partly cloudy 20000 ft
2019/06/18 14:56 KADW 181456Z AUTO 00000KT 10SM SCT014 SCT200 26/22 A2994 RMK AO2 SLP143 T02600216 52003 $
 
KDOV - Dover Afb, Delaware, USA
Distance from station: E 42mi, 68km
Updated: Tue, 18-Jun-2019 10:56am EDT
Partly cloudy
Partly cloudy
 Wind from WSW
Wind: WSW 7 mph , 11 km/h
Temperature: 81°F , 27°C
Heat Index: 86°F , 30°C
Dew Point: 73°F , 23°C
Humidity: 79%
Barometer: 29.92 inHg , 1013.2 hPa
Clouds: Partly cloudy
Visibility: 10 miles , 16 km
Cloud details: Few Clouds 1900 ft
Partly cloudy 11000 ft
Partly cloudy 14000 ft
Partly cloudy 16000 ft
2019/06/18 14:56 KDOV 181456Z AUTO 24006KT 10SM FEW019 SCT110 SCT140 SCT160 27/23 A2992 RMK AO2 SLP135 60000 T02690225 55008 $
KCGE - Cambridge-Dorch, Maryland, USA
Distance from station: SSE 45mi, 73km
Updated: Tue, 18-Jun-2019 10:45am EDT
Few Clouds
Few Clouds
 Wind from WSW
Wind: WSW 5 mph , 7 km/h
Temperature: 79°F , 26°C
Dew Point: 72°F , 22°C
Humidity: 79%
Barometer: 29.93 inHg , 1013.5 hPa
Clouds: Few Clouds
Visibility: 10 miles , 16 km
Cloud details: Few Clouds 10000 ft
2019/06/18 14:45 KCGE 181445Z AUTO 25004KT 10SM FEW100 26/22 A2993 RMK A01
 
KDCA - Washington/Natl, Washington D.c., USA
Distance from station: WSW 47mi, 76km
Updated: Tue, 18-Jun-2019 10:52am EDT
Mostly cloudy
Mostly cloudy
 Wind from S
Wind: S 6 mph , 9 km/h
Temperature: 79°F , 26°C
Dew Point: 72°F , 22°C
Humidity: 79%
Barometer: 29.94 inHg , 1013.9 hPa
Clouds: Mostly cloudy
Visibility: 10 miles , 16 km
Cloud details: Few Clouds 1500 ft
Few Clouds 11000 ft
Mostly cloudy 16000 ft
Mostly cloudy 25000 ft
2019/06/18 14:52 KDCA 181452Z 17005KT 10SM FEW015 FEW110 BKN160 BKN250 26/22 A2994 RMK AO2 SLP138 T02610222 53000
KGAI - Gaithersburg, Maryland, USA
Distance from station: W 49mi, 78km
Updated: Tue, 18-Jun-2019 10:56am EDT
Overcast
Overcast
 Wind from WSW
Wind: WSW 6 mph , 9 km/h
Temperature: 81°F , 27°C
Heat Index: 85°F , 29°C
Dew Point: 72°F , 22°C
Humidity: 74%
Barometer: 29.96 inHg , 1014.6 hPa
Clouds: Overcast
Visibility: 10 miles , 16 km
Cloud details: Few Clouds 2000 ft
Overcast 10000 ft
2019/06/18 14:56 KGAI 181456Z AUTO 25005KT 10SM FEW020 OVC100 27/22 A2996 RMK AO2 SLPNO 6//// T02670222
 
KILG - Wilmington, Delaware, USA
Distance from station: NE 49mi, 79km
Updated: Tue, 18-Jun-2019 10:51am EDT
Mostly cloudy
Mostly cloudy
 Wind from calm
Wind: Calm
Temperature: 75°F , 24°C
Dew Point: 72°F , 22°C
Humidity: 89%
Barometer: 29.93 inHg , 1013.5 hPa
Clouds: Mostly cloudy
Visibility: 10 miles , 16 km
Cloud details: Few Clouds 1000 ft
Partly cloudy 1400 ft
Mostly cloudy 11000 ft
2019/06/18 14:51 KILG 181451Z 00000KT 10SM FEW010 SCT014 BKN110 24/22 A2993 RMK AO2 SLP133 T02440222 58006
KDMW - Carroll Cnty, Maryland, USA
Distance from station: NW 50mi, 80km
Updated: Tue, 18-Jun-2019 10:40am EDT
Partly cloudy
Partly cloudy
 Wind from SW
Wind: SW 6 mph , 9 km/h
Temperature: 81°F , 27°C
Heat Index: 85°F , 29°C
Dew Point: 72°F , 22°C
Humidity: 74%
Barometer: 29.94 inHg , 1013.9 hPa
Clouds: Partly cloudy
Visibility: 10 miles , 16 km
Cloud details: Partly cloudy 9000 ft
2019/06/18 14:40 KDMW 181440Z AUTO 23005KT 10SM SCT090 27/22 A2994 RMK AO2